N115MF KPSP-KCHA
Flight info
| Callsign | N115MF |
|---|---|
| Flight time | N/A |
| Altitude | 39000 |
| Route | EED DRK NABOB J74 IRW J14 LIT J66 MEM FLORS SALMS |
| Aircraft | FA50/M-SDFGHIM1RWXY/H |
Departure
| Time | N/A |
|---|---|
| Airport | Palm Springs International Airport (KPSP) |
Arrival
| Time | 2026-04-23 05:55 |
|---|---|
| Airport | Chattanooga Metropolitan Airport (Lovell Field) (KCHA) |
| Time | Latitude | Longitude | Altitude | Speed | Heading |
|---|---|---|---|---|---|
| 2026-04-23 03:20 | 34.40753 | -109.59338 | 41096 ft | 560 kts | 86° |
| 2026-04-23 03:21 | 34.41117 | -109.49896 | 41081 ft | 560 kts | 86° |
| 2026-04-23 03:21 | 34.41470 | -109.40524 | 41068 ft | 559 kts | 86° |
| 2026-04-23 03:22 | 34.41816 | -109.31115 | 41064 ft | 559 kts | 87° |
| 2026-04-23 03:22 | 34.42154 | -109.21702 | 41068 ft | 559 kts | 87° |
| 2026-04-23 03:23 | 34.42386 | -109.12551 | 41078 ft | 558 kts | 88° |
| 2026-04-23 03:23 | 34.42457 | -109.03150 | 41085 ft | 558 kts | 89° |
| 2026-04-23 03:24 | 34.42444 | -108.93743 | 41089 ft | 558 kts | 90° |
| 2026-04-23 03:24 | 34.42393 | -108.84347 | 41092 ft | 558 kts | 90° |
| 2026-04-23 03:25 | 34.42325 | -108.75008 | 41094 ft | 558 kts | 90° |
| 2026-04-23 03:25 | 34.42249 | -108.65609 | 41098 ft | 558 kts | 90° |
| 2026-04-23 03:26 | 34.42170 | -108.56212 | 41098 ft | 558 kts | 90° |
| 2026-04-23 03:26 | 34.42088 | -108.46806 | 41093 ft | 558 kts | 90° |
| 2026-04-23 03:27 | 34.42003 | -108.37403 | 41091 ft | 558 kts | 91° |
| 2026-04-23 03:27 | 34.41914 | -108.28038 | 41092 ft | 560 kts | 91° |
| 2026-04-23 03:28 | 34.41817 | -108.18593 | 41088 ft | 561 kts | 91° |
| 2026-04-23 03:28 | 34.41717 | -108.09143 | 41083 ft | 561 kts | 91° |
| 2026-04-23 03:29 | 34.41613 | -107.99685 | 41077 ft | 561 kts | 91° |
| 2026-04-23 03:29 | 34.41503 | -107.90289 | 41071 ft | 561 kts | 91° |
| 2026-04-23 03:30 | 34.41385 | -107.80836 | 41043 ft | 561 kts | 91° |
| 2026-04-23 03:30 | 34.41260 | -107.71384 | 41030 ft | 561 kts | 91° |
| 2026-04-23 03:31 | 34.41126 | -107.61949 | 41021 ft | 560 kts | 91° |
| 2026-04-23 03:31 | 34.40984 | -107.52506 | 41013 ft | 560 kts | 91° |
| 2026-04-23 03:32 | 34.40834 | -107.43074 | 41005 ft | 560 kts | 91° |
| 2026-04-23 03:32 | 34.40704 | -107.35241 | 40997 ft | 559 kts | 91° |
| 2026-04-23 03:33 | 34.40540 | -107.25818 | 40990 ft | 559 kts | 91° |
| 2026-04-23 03:33 | 34.40369 | -107.16398 | 40985 ft | 559 kts | 91° |
| 2026-04-23 03:34 | 34.40161 | -107.05460 | 40982 ft | 558 kts | 91° |
| 2026-04-23 03:34 | 34.40005 | -106.97586 | 40982 ft | 558 kts | 91° |
| 2026-04-23 03:35 | 34.39812 | -106.88246 | 40982 ft | 558 kts | 91° |
| 2026-04-23 03:35 | 34.39615 | -106.78856 | 40982 ft | 557 kts | 91° |
| 2026-04-23 03:36 | 34.39418 | -106.69471 | 40981 ft | 557 kts | 91° |
| 2026-04-23 03:36 | 34.39224 | -106.60093 | 40981 ft | 557 kts | 91° |
| 2026-04-23 03:37 | 34.39062 | -106.50704 | 40990 ft | 557 kts | 91° |
| 2026-04-23 03:37 | 34.38836 | -106.41327 | 40992 ft | 557 kts | 92° |
| 2026-04-23 03:38 | 34.38605 | -106.32018 | 40996 ft | 557 kts | 91° |
| 2026-04-23 03:38 | 34.38338 | -106.22641 | 41001 ft | 557 kts | 91° |
| 2026-04-23 03:39 | 34.38065 | -106.13268 | 41007 ft | 557 kts | 91° |
| 2026-04-23 03:39 | 34.37809 | -106.03892 | 41009 ft | 557 kts | 91° |
| 2026-04-23 03:40 | 34.37556 | -105.94528 | 41026 ft | 557 kts | 92° |
| 2026-04-23 03:40 | 34.37295 | -105.85157 | 41033 ft | 556 kts | 91° |
| 2026-04-23 03:41 | 34.37012 | -105.75797 | 41036 ft | 556 kts | 91° |
| 2026-04-23 03:41 | 34.36882 | -105.66497 | 41040 ft | 555 kts | 88° |
| 2026-04-23 03:42 | 34.37131 | -105.57164 | 41023 ft | 554 kts | 86° |
| 2026-04-23 03:42 | 34.37582 | -105.47860 | 41015 ft | 553 kts | 84° |
| 2026-04-23 03:43 | 34.38114 | -105.38579 | 41006 ft | 551 kts | 84° |
| 2026-04-23 03:43 | 34.38642 | -105.29355 | 40995 ft | 548 kts | 84° |
| 2026-04-23 03:44 | 34.39173 | -105.20211 | 40986 ft | 548 kts | 84° |
| 2026-04-23 03:44 | 34.39699 | -105.10994 | 40977 ft | 547 kts | 84° |
| 2026-04-23 03:45 | 34.40210 | -105.01798 | 40966 ft | 547 kts | 85° |
| 2026-04-23 03:45 | 34.40704 | -104.92624 | 40951 ft | 546 kts | 85° |
| 2026-04-23 03:46 | 34.41183 | -104.83461 | 40939 ft | 545 kts | 85° |
| 2026-04-23 03:46 | 34.41649 | -104.74308 | 40929 ft | 543 kts | 85° |
| 2026-04-23 03:47 | 34.42103 | -104.65179 | 40921 ft | 543 kts | 85° |
| 2026-04-23 03:47 | 34.42545 | -104.56098 | 40894 ft | 542 kts | 85° |
| 2026-04-23 03:48 | 34.42980 | -104.46978 | 40878 ft | 542 kts | 85° |
| 2026-04-23 03:48 | 34.43407 | -104.37847 | 40864 ft | 542 kts | 85° |
| 2026-04-23 03:49 | 34.43826 | -104.28735 | 40861 ft | 541 kts | 85° |
| 2026-04-23 03:49 | 34.44234 | -104.19681 | 40860 ft | 541 kts | 85° |
| 2026-04-23 03:50 | 34.44639 | -104.10558 | 40859 ft | 541 kts | 85° |
| 2026-04-23 03:50 | 34.45036 | -104.01439 | 40858 ft | 541 kts | 85° |
| 2026-04-23 03:51 | 34.45425 | -103.92338 | 40858 ft | 539 kts | 85° |
| 2026-04-23 03:51 | 34.45805 | -103.83266 | 40858 ft | 539 kts | 85° |
| 2026-04-23 03:52 | 34.46177 | -103.74252 | 40859 ft | 538 kts | 85° |
| 2026-04-23 03:52 | 34.46544 | -103.65187 | 40860 ft | 538 kts | 85° |
| 2026-04-23 03:53 | 34.46904 | -103.56131 | 40861 ft | 537 kts | 85° |
| 2026-04-23 03:53 | 34.47256 | -103.47096 | 40863 ft | 536 kts | 85° |
| 2026-04-23 03:54 | 34.47598 | -103.38129 | 40866 ft | 535 kts | 85° |
| 2026-04-23 03:54 | 34.47936 | -103.29118 | 40869 ft | 534 kts | 86° |
| 2026-04-23 03:55 | 34.48265 | -103.20135 | 40879 ft | 533 kts | 86° |
| 2026-04-23 03:55 | 34.48588 | -103.11160 | 40890 ft | 532 kts | 86° |
| 2026-04-23 03:56 | 34.48903 | -103.02188 | 40896 ft | 531 kts | 86° |
| 2026-04-23 03:56 | 34.49210 | -102.93231 | 40897 ft | 530 kts | 86° |
| 2026-04-23 03:57 | 34.49676 | -102.84380 | 40894 ft | 528 kts | 81° |
| 2026-04-23 03:57 | 34.50850 | -102.75610 | 40891 ft | 526 kts | 76° |
| 2026-04-23 03:58 | 34.52364 | -102.66942 | 40884 ft | 525 kts | 75° |
| 2026-04-23 03:58 | 34.53999 | -102.58306 | 40875 ft | 524 kts | 74° |
| 2026-04-23 03:59 | 34.55665 | -102.49687 | 40870 ft | 524 kts | 74° |
| 2026-04-23 03:59 | 34.57323 | -102.41079 | 40867 ft | 524 kts | 74° |
| 2026-04-23 04:00 | 34.58966 | -102.32466 | 40864 ft | 523 kts | 74° |
| 2026-04-23 04:00 | 34.60591 | -102.23848 | 40862 ft | 524 kts | 74° |
| 2026-04-23 04:01 | 34.62192 | -102.15268 | 40861 ft | 524 kts | 75° |
| 2026-04-23 04:01 | 34.63788 | -102.06623 | 40860 ft | 524 kts | 75° |
| 2026-04-23 04:02 | 34.65370 | -101.97985 | 40860 ft | 523 kts | 75° |
| 2026-04-23 04:02 | 34.66938 | -101.89354 | 40858 ft | 522 kts | 75° |
| 2026-04-23 04:03 | 34.68492 | -101.80747 | 40857 ft | 522 kts | 75° |
| 2026-04-23 04:03 | 34.70036 | -101.72144 | 40855 ft | 521 kts | 75° |
| 2026-04-23 04:04 | 34.71563 | -101.63586 | 40844 ft | 521 kts | 75° |
| 2026-04-23 04:04 | 34.73090 | -101.54988 | 40839 ft | 520 kts | 75° |
| 2026-04-23 04:05 | 34.74611 | -101.46376 | 40837 ft | 520 kts | 75° |
| 2026-04-23 04:05 | 34.76125 | -101.37771 | 40837 ft | 519 kts | 75° |
| 2026-04-23 04:06 | 34.77629 | -101.29171 | 40840 ft | 519 kts | 75° |
| 2026-04-23 04:06 | 34.79118 | -101.20623 | 40839 ft | 518 kts | 75° |
| 2026-04-23 04:07 | 34.80609 | -101.12029 | 40838 ft | 518 kts | 75° |
| 2026-04-23 04:07 | 34.82091 | -101.03441 | 40837 ft | 517 kts | 75° |
| 2026-04-23 04:08 | 34.83557 | -100.94913 | 40833 ft | 517 kts | 75° |
| 2026-04-23 04:08 | 34.85021 | -100.86351 | 40829 ft | 517 kts | 75° |
| 2026-04-23 04:09 | 34.86482 | -100.77773 | 40827 ft | 516 kts | 76° |
| 2026-04-23 04:09 | 34.87936 | -100.69200 | 40826 ft | 516 kts | 76° |
| 2026-04-23 04:10 | 34.89374 | -100.60678 | 40825 ft | 516 kts | 76° |
| 2026-04-23 04:10 | 34.90813 | -100.52116 | 40824 ft | 516 kts | 76° |
| 2026-04-23 04:11 | 34.92255 | -100.43495 | 40824 ft | 515 kts | 76° |
| 2026-04-23 04:11 | 34.93682 | -100.34928 | 40830 ft | 515 kts | 76° |
| 2026-04-23 04:12 | 34.95101 | -100.26364 | 40830 ft | 515 kts | 76° |
| 2026-04-23 04:12 | 34.96503 | -100.17865 | 40831 ft | 515 kts | 76° |
| 2026-04-23 04:13 | 34.97908 | -100.09309 | 40832 ft | 514 kts | 76° |
| 2026-04-23 04:13 | 34.99306 | -100.00757 | 40835 ft | 514 kts | 76° |
| 2026-04-23 04:14 | 35.00696 | -99.92218 | 40837 ft | 512 kts | 76° |
| 2026-04-23 04:14 | 35.02074 | -99.83706 | 40839 ft | 511 kts | 76° |
| 2026-04-23 04:15 | 35.03446 | -99.75194 | 40842 ft | 510 kts | 76° |
| 2026-04-23 04:16 | 35.05491 | -99.62431 | 40845 ft | 510 kts | 77° |
| 2026-04-23 04:16 | 35.06837 | -99.53984 | 40846 ft | 510 kts | 77° |
| 2026-04-23 04:17 | 35.08185 | -99.45486 | 40847 ft | 509 kts | 77° |
| 2026-04-23 04:17 | 35.09309 | -99.38367 | 40856 ft | 509 kts | 77° |
| 2026-04-23 04:18 | 35.10859 | -99.28503 | 40863 ft | 509 kts | 77° |
| 2026-04-23 04:18 | 35.11961 | -99.21454 | 40865 ft | 508 kts | 77° |
| 2026-04-23 04:19 | 35.13283 | -99.12967 | 40868 ft | 508 kts | 77° |
| 2026-04-23 04:19 | 35.14598 | -99.04480 | 40869 ft | 508 kts | 77° |
| 2026-04-23 04:20 | 35.15905 | -98.96002 | 40870 ft | 507 kts | 78° |
| 2026-04-23 04:20 | 35.17197 | -98.87585 | 40870 ft | 506 kts | 78° |
| 2026-04-23 04:21 | 35.18489 | -98.79121 | 40873 ft | 506 kts | 78° |
| 2026-04-23 04:21 | 35.19774 | -98.70666 | 40874 ft | 506 kts | 78° |
| 2026-04-23 04:22 | 35.21054 | -98.62203 | 40877 ft | 505 kts | 78° |
| 2026-04-23 04:22 | 35.22324 | -98.53763 | 40880 ft | 504 kts | 79° |
| 2026-04-23 04:23 | 35.23580 | -98.45375 | 40896 ft | 504 kts | 79° |
| 2026-04-23 04:23 | 35.24835 | -98.36947 | 40903 ft | 503 kts | 79° |
| 2026-04-23 04:24 | 35.26084 | -98.28521 | 40908 ft | 503 kts | 79° |
| 2026-04-23 04:24 | 35.27329 | -98.20078 | 40913 ft | 503 kts | 79° |
| 2026-04-23 04:25 | 35.28564 | -98.11658 | 40916 ft | 502 kts | 79° |
| 2026-04-23 04:25 | 35.29785 | -98.03293 | 40918 ft | 502 kts | 79° |
| 2026-04-23 04:26 | 35.31008 | -97.94871 | 40916 ft | 500 kts | 80° |
| 2026-04-23 04:26 | 35.32219 | -97.86492 | 40914 ft | 499 kts | 80° |
| 2026-04-23 04:27 | 35.33421 | -97.78115 | 40915 ft | 499 kts | 80° |
| 2026-04-23 04:27 | 35.34617 | -97.69734 | 40907 ft | 499 kts | 80° |
| 2026-04-23 04:28 | 35.35556 | -97.57130 | 40910 ft | 498 kts | 92° |
| 2026-04-23 04:28 | 35.35039 | -97.48686 | 40915 ft | 497 kts | 97° |
| 2026-04-23 04:29 | 35.34187 | -97.40280 | 40918 ft | 496 kts | 98° |
| 2026-04-23 04:29 | 35.33227 | -97.31912 | 40920 ft | 496 kts | 99° |
| 2026-04-23 04:30 | 35.32247 | -97.23543 | 40921 ft | 496 kts | 99° |
| 2026-04-23 04:30 | 35.31278 | -97.15184 | 40924 ft | 495 kts | 99° |
| 2026-04-23 04:31 | 35.30331 | -97.06870 | 40928 ft | 495 kts | 99° |
| 2026-04-23 04:31 | 35.29394 | -96.98518 | 40934 ft | 495 kts | 99° |
| 2026-04-23 04:32 | 35.28466 | -96.90165 | 40939 ft | 495 kts | 98° |
| 2026-04-23 04:32 | 35.27543 | -96.81821 | 40945 ft | 494 kts | 98° |
| 2026-04-23 04:33 | 35.26620 | -96.73463 | 40948 ft | 494 kts | 98° |
| 2026-04-23 04:33 | 35.25703 | -96.65173 | 40949 ft | 494 kts | 98° |
| 2026-04-23 04:34 | 35.24778 | -96.56842 | 40950 ft | 493 kts | 99° |
| 2026-04-23 04:34 | 35.23850 | -96.48525 | 40953 ft | 493 kts | 99° |
| 2026-04-23 04:35 | 35.22918 | -96.40220 | 40957 ft | 492 kts | 99° |
| 2026-04-23 04:35 | 35.21981 | -96.31922 | 40962 ft | 492 kts | 99° |
| 2026-04-23 04:36 | 35.21038 | -96.23625 | 40966 ft | 492 kts | 99° |
| 2026-04-23 04:36 | 35.20098 | -96.15387 | 40969 ft | 492 kts | 99° |
| 2026-04-23 04:37 | 35.19149 | -96.07098 | 40971 ft | 492 kts | 99° |
| 2026-04-23 04:37 | 35.18195 | -95.98818 | 40973 ft | 492 kts | 99° |
| 2026-04-23 04:38 | 35.17237 | -95.90563 | 40979 ft | 489 kts | 99° |
| 2026-04-23 04:38 | 35.16277 | -95.82333 | 40982 ft | 489 kts | 99° |
| 2026-04-23 04:39 | 35.15309 | -95.74100 | 40984 ft | 489 kts | 99° |
| 2026-04-23 04:39 | 35.15151 | -95.72764 | 40984 ft | 489 kts | 99° |
| 2026-04-23 04:40 | 35.13362 | -95.57701 | 40982 ft | 489 kts | 99° |
| 2026-04-23 04:40 | 35.12373 | -95.49466 | 40982 ft | 489 kts | 99° |
| 2026-04-23 04:41 | 35.11340 | -95.41256 | 40983 ft | 488 kts | 100° |
| 2026-04-23 04:41 | 35.10275 | -95.33065 | 40985 ft | 488 kts | 100° |
| 2026-04-23 04:42 | 35.09192 | -95.24873 | 40987 ft | 488 kts | 100° |
| 2026-04-23 04:42 | 35.08107 | -95.16732 | 40987 ft | 488 kts | 100° |
| 2026-04-23 04:43 | 35.06935 | -95.07996 | 40989 ft | 488 kts | 100° |
| 2026-04-23 04:43 | 35.05842 | -94.99875 | 40993 ft | 488 kts | 100° |
| 2026-04-23 04:44 | 35.04735 | -94.91698 | 40998 ft | 488 kts | 100° |
| 2026-04-23 04:44 | 35.03625 | -94.83530 | 41005 ft | 487 kts | 100° |
| 2026-04-23 04:45 | 35.02511 | -94.75376 | 41014 ft | 487 kts | 100° |
| 2026-04-23 04:45 | 35.01480 | -94.67196 | 41019 ft | 487 kts | 98° |
| 2026-04-23 04:46 | 35.00853 | -94.60349 | 41019 ft | 487 kts | 96° |
| 2026-04-23 04:46 | 35.00228 | -94.52122 | 41019 ft | 487 kts | 96° |
| 2026-04-23 04:47 | 34.99649 | -94.43886 | 41020 ft | 487 kts | 95° |
| 2026-04-23 04:47 | 34.99081 | -94.35696 | 41021 ft | 487 kts | 96° |
| 2026-04-23 04:48 | 34.98502 | -94.27456 | 41025 ft | 487 kts | 96° |
| 2026-04-23 04:48 | 34.97912 | -94.19223 | 41028 ft | 487 kts | 96° |
| 2026-04-23 04:49 | 34.97311 | -94.10994 | 41032 ft | 487 kts | 96° |
| 2026-04-23 04:49 | 34.96705 | -94.02824 | 41034 ft | 486 kts | 96° |
| 2026-04-23 04:50 | 34.96086 | -93.94607 | 41035 ft | 486 kts | 96° |
| 2026-04-23 04:50 | 34.95460 | -93.86411 | 41037 ft | 485 kts | 96° |
| 2026-04-23 04:51 | 34.94828 | -93.78213 | 41038 ft | 485 kts | 96° |
| 2026-04-23 04:51 | 34.94189 | -93.70033 | 41039 ft | 485 kts | 96° |
| 2026-04-23 04:52 | 34.93545 | -93.61852 | 41041 ft | 485 kts | 96° |
| 2026-04-23 04:52 | 34.92894 | -93.53670 | 41045 ft | 485 kts | 96° |
| 2026-04-23 04:53 | 34.92243 | -93.45552 | 41049 ft | 485 kts | 96° |
| 2026-04-23 04:53 | 34.91581 | -93.37373 | 41051 ft | 485 kts | 96° |
| 2026-04-23 04:54 | 34.90913 | -93.29200 | 41053 ft | 485 kts | 96° |
| 2026-04-23 04:54 | 34.90240 | -93.21026 | 41054 ft | 485 kts | 96° |
| 2026-04-23 04:55 | 34.89562 | -93.12858 | 41056 ft | 484 kts | 96° |
| 2026-04-23 04:55 | 34.88878 | -93.04696 | 41061 ft | 484 kts | 96° |
| 2026-04-23 04:56 | 34.88189 | -92.96531 | 41063 ft | 484 kts | 96° |
| 2026-04-23 04:56 | 34.87498 | -92.88417 | 41063 ft | 484 kts | 96° |
| 2026-04-23 04:57 | 34.86798 | -92.80250 | 41061 ft | 484 kts | 96° |
| 2026-04-23 04:57 | 34.86092 | -92.72093 | 41052 ft | 484 kts | 96° |
| 2026-04-23 04:58 | 34.85382 | -92.63942 | 41051 ft | 484 kts | 96° |
| 2026-04-23 04:58 | 34.84666 | -92.55803 | 41051 ft | 483 kts | 96° |
| 2026-04-23 04:59 | 34.83946 | -92.47664 | 41055 ft | 483 kts | 96° |
| 2026-04-23 04:59 | 34.83224 | -92.39581 | 41058 ft | 483 kts | 96° |
| 2026-04-23 05:00 | 34.82492 | -92.31444 | 41060 ft | 483 kts | 96° |
| 2026-04-23 05:00 | 34.81754 | -92.23308 | 41060 ft | 483 kts | 96° |
| 2026-04-23 05:01 | 34.81217 | -92.15154 | 41063 ft | 483 kts | 90° |
| 2026-04-23 05:01 | 34.81562 | -92.06993 | 41069 ft | 483 kts | 84° |
| 2026-04-23 05:02 | 34.82317 | -91.98845 | 41067 ft | 483 kts | 82° |
| 2026-04-23 05:02 | 34.83192 | -91.90789 | 41063 ft | 482 kts | 82° |
| 2026-04-23 05:03 | 34.84096 | -91.82690 | 41057 ft | 482 kts | 82° |
| 2026-04-23 05:03 | 34.84986 | -91.74594 | 41052 ft | 482 kts | 82° |
| 2026-04-23 05:04 | 34.85850 | -91.66540 | 41051 ft | 482 kts | 82° |
| 2026-04-23 05:04 | 34.86696 | -91.58435 | 41056 ft | 482 kts | 82° |
| 2026-04-23 05:05 | 34.87525 | -91.50318 | 41058 ft | 483 kts | 82° |
| 2026-04-23 05:05 | 34.88338 | -91.42208 | 41061 ft | 483 kts | 82° |
| 2026-04-23 05:06 | 34.89140 | -91.34086 | 41074 ft | 483 kts | 82° |
| 2026-04-23 05:06 | 34.89932 | -91.25961 | 41089 ft | 483 kts | 82° |
| 2026-04-23 05:07 | 34.90716 | -91.17829 | 41089 ft | 483 kts | 82° |
| 2026-04-23 05:07 | 34.91494 | -91.09682 | 41088 ft | 484 kts | 82° |
| 2026-04-23 05:08 | 34.92259 | -91.01590 | 41086 ft | 484 kts | 82° |
| 2026-04-23 05:08 | 34.93024 | -90.93443 | 41084 ft | 484 kts | 82° |
| 2026-04-23 05:09 | 34.93783 | -90.85298 | 41083 ft | 484 kts | 82° |
| 2026-04-23 05:09 | 34.94536 | -90.77143 | 41083 ft | 484 kts | 82° |
| 2026-04-23 05:10 | 34.95283 | -90.68996 | 41084 ft | 483 kts | 82° |
| 2026-04-23 05:10 | 34.96023 | -90.60852 | 41086 ft | 483 kts | 83° |
| 2026-04-23 05:11 | 34.96759 | -90.52697 | 41088 ft | 484 kts | 82° |
| 2026-04-23 05:11 | 34.97485 | -90.44587 | 41090 ft | 484 kts | 83° |
| 2026-04-23 05:12 | 34.98211 | -90.36422 | 41091 ft | 484 kts | 83° |
| 2026-04-23 05:12 | 34.98931 | -90.28251 | 41092 ft | 484 kts | 83° |
| 2026-04-23 05:13 | 34.99644 | -90.20088 | 41094 ft | 484 kts | 83° |
| 2026-04-23 05:14 | 35.00705 | -90.07821 | 41102 ft | 484 kts | 83° |
| 2026-04-23 05:14 | 35.01357 | -89.99692 | 41106 ft | 485 kts | 84° |
| 2026-04-23 05:15 | 35.01672 | -89.91458 | 41109 ft | 486 kts | 87° |
| 2026-04-23 05:15 | 35.01791 | -89.83209 | 41108 ft | 486 kts | 88° |
| 2026-04-23 05:16 | 35.01838 | -89.74957 | 41109 ft | 486 kts | 88° |
| 2026-04-23 05:16 | 35.01863 | -89.66759 | 41109 ft | 486 kts | 88° |
| 2026-04-23 05:17 | 35.01883 | -89.58507 | 41110 ft | 486 kts | 88° |
| 2026-04-23 05:17 | 35.01902 | -89.50247 | 41110 ft | 487 kts | 88° |
| 2026-04-23 05:18 | 35.01923 | -89.41992 | 41109 ft | 487 kts | 88° |
| 2026-04-23 05:18 | 35.01943 | -89.33730 | 41111 ft | 487 kts | 88° |
| 2026-04-23 05:19 | 35.01961 | -89.25464 | 41114 ft | 486 kts | 88° |
| 2026-04-23 05:19 | 35.01971 | -89.19838 | 41115 ft | 486 kts | 88° |
| 2026-04-23 05:20 | 35.01981 | -89.13407 | 41117 ft | 486 kts | 88° |
| 2026-04-23 05:20 | 35.01990 | -89.05150 | 41119 ft | 487 kts | 88° |
| 2026-04-23 05:21 | 35.01995 | -88.96868 | 41123 ft | 487 kts | 88° |
| 2026-04-23 05:21 | 35.01994 | -88.88652 | 41126 ft | 487 kts | 88° |
| 2026-04-23 05:22 | 35.01988 | -88.80344 | 41130 ft | 487 kts | 88° |
| 2026-04-23 05:22 | 35.01977 | -88.72075 | 41133 ft | 487 kts | 88° |
| 2026-04-23 05:23 | 35.01961 | -88.63859 | 41135 ft | 487 kts | 88° |
| 2026-04-23 05:23 | 35.01938 | -88.55579 | 41137 ft | 487 kts | 88° |
| 2026-04-23 05:24 | 35.01909 | -88.47321 | 41136 ft | 487 kts | 88° |
| 2026-04-23 05:24 | 35.01841 | -88.39040 | 41135 ft | 487 kts | 88° |
| 2026-04-23 05:25 | 35.01801 | -88.30767 | 41132 ft | 488 kts | 88° |
| 2026-04-23 05:25 | 35.01768 | -88.22487 | 41131 ft | 488 kts | 88° |
| 2026-04-23 05:26 | 35.01730 | -88.14211 | 41132 ft | 488 kts | 88° |
| 2026-04-23 05:26 | 35.01682 | -88.05991 | 41135 ft | 488 kts | 88° |
| 2026-04-23 05:27 | 35.01622 | -87.97713 | 41138 ft | 488 kts | 88° |
| 2026-04-23 05:27 | 35.01556 | -87.89434 | 41141 ft | 488 kts | 88° |
| 2026-04-23 05:28 | 35.01484 | -87.81137 | 41144 ft | 488 kts | 88° |
| 2026-04-23 05:28 | 35.01406 | -87.72856 | 40975 ft | 488 kts | 88° |
| 2026-04-23 05:28 | 35.01366 | -87.68705 | 40485 ft | 488 kts | 88° |
| 2026-04-23 05:29 | 35.01324 | -87.64629 | 39989 ft | 485 kts | 88° |
| 2026-04-23 05:29 | 35.01280 | -87.60544 | 39398 ft | 478 kts | 88° |
| 2026-04-23 05:29 | 35.01236 | -87.56461 | 38750 ft | 472 kts | 88° |
| 2026-04-23 05:29 | 35.01192 | -87.52474 | 38102 ft | 469 kts | 88° |
| 2026-04-23 05:30 | 35.01148 | -87.48510 | 37453 ft | 466 kts | 88° |
| 2026-04-23 05:30 | 35.01113 | -87.44612 | 36811 ft | 465 kts | 88° |
| 2026-04-23 05:30 | 35.01072 | -87.40667 | 36161 ft | 464 kts | 88° |
| 2026-04-23 05:30 | 35.01026 | -87.36733 | 35511 ft | 463 kts | 88° |
| 2026-04-23 05:31 | 35.00978 | -87.32801 | 34861 ft | 463 kts | 88° |
| 2026-04-23 05:31 | 35.00926 | -87.28875 | 34211 ft | 462 kts | 88° |
| 2026-04-23 05:31 | 35.00873 | -87.24949 | 33561 ft | 462 kts | 88° |
| 2026-04-23 05:31 | 35.00818 | -87.21021 | 32910 ft | 462 kts | 88° |
| 2026-04-23 05:32 | 35.00762 | -87.17093 | 32260 ft | 462 kts | 88° |
| 2026-04-23 05:32 | 35.00724 | -87.14493 | 31829 ft | 463 kts | 88° |
| 2026-04-23 05:32 | 35.00665 | -87.10571 | 31181 ft | 463 kts | 88° |
| 2026-04-23 05:32 | 35.00585 | -87.05379 | 30325 ft | 464 kts | 88° |
| 2026-04-23 05:33 | 35.00522 | -87.01453 | 29634 ft | 454 kts | 88° |
| 2026-04-23 05:33 | 35.00458 | -86.97654 | 28912 ft | 441 kts | 89° |
| 2026-04-23 05:33 | 35.00393 | -86.93951 | 28189 ft | 432 kts | 89° |
| 2026-04-23 05:33 | 35.00351 | -86.91537 | 27801 ft | 425 kts | 89° |
| 2026-04-23 05:34 | 35.00265 | -86.88020 | 27982 ft | 399 kts | 89° |
| 2026-04-23 05:34 | 35.00190 | -86.84420 | 27783 ft | 446 kts | 89° |
| 2026-04-23 05:34 | 35.00028 | -86.79297 | 27017 ft | 438 kts | 92° |
| 2026-04-23 05:34 | 34.99743 | -86.75725 | 26254 ft | 417 kts | 94° |
| 2026-04-23 05:35 | 34.99499 | -86.73333 | 25757 ft | 439 kts | 96° |
| 2026-04-23 05:35 | 34.99074 | -86.69642 | 24987 ft | 431 kts | 96° |
| 2026-04-23 05:35 | 34.98626 | -86.66056 | 24216 ft | 436 kts | 97° |
| 2026-04-23 05:35 | 34.98144 | -86.62365 | 23446 ft | 437 kts | 97° |
| 2026-04-23 05:36 | 34.97667 | -86.58852 | 22673 ft | 401 kts | 98° |
| 2026-04-23 05:36 | 34.97217 | -86.55635 | 21947 ft | 371 kts | 98° |
| 2026-04-23 05:36 | 34.96792 | -86.52633 | 21273 ft | 346 kts | 98° |
| 2026-04-23 05:36 | 34.96398 | -86.49854 | 20652 ft | 327 kts | 98° |
| 2026-04-23 05:37 | 34.96023 | -86.47197 | 20062 ft | 310 kts | 98° |
| 2026-04-23 05:37 | 34.95667 | -86.44665 | 19502 ft | 296 kts | 98° |
| 2026-04-23 05:37 | 34.95318 | -86.42141 | 18968 ft | 316 kts | 98° |
| 2026-04-23 05:37 | 34.94939 | -86.39363 | 18410 ft | 352 kts | 98° |
| 2026-04-23 05:38 | 34.94538 | -86.36362 | 17797 ft | 366 kts | 98° |
| 2026-04-23 05:38 | 34.94126 | -86.33199 | 17149 ft | 391 kts | 98° |
| 2026-04-23 05:38 | 34.93690 | -86.29838 | 16462 ft | 409 kts | 98° |
| 2026-04-23 05:38 | 34.93258 | -86.26576 | 15746 ft | 369 kts | 99° |
| 2026-04-23 05:39 | 34.92829 | -86.23632 | 15087 ft | 340 kts | 101° |
| 2026-04-23 05:39 | 34.92314 | -86.20931 | 14483 ft | 314 kts | 102° |
| 2026-04-23 05:39 | 34.91903 | -86.18408 | 13927 ft | 302 kts | 99° |
| 2026-04-23 05:39 | 34.91565 | -86.15925 | 13391 ft | 295 kts | 98° |
| 2026-04-23 05:40 | 34.91241 | -86.13471 | 12865 ft | 292 kts | 99° |
| 2026-04-23 05:40 | 34.90915 | -86.11033 | 12339 ft | 290 kts | 99° |
| 2026-04-23 05:40 | 34.90592 | -86.08617 | 11814 ft | 288 kts | 99° |
| 2026-04-23 05:40 | 34.90274 | -86.06205 | 11287 ft | 288 kts | 99° |
| 2026-04-23 05:41 | 34.89958 | -86.03802 | 10770 ft | 287 kts | 98° |
| 2026-04-23 05:41 | 34.89636 | -86.01410 | 10270 ft | 287 kts | 98° |
| 2026-04-23 05:41 | 34.89306 | -85.98999 | 9767 ft | 288 kts | 98° |
| 2026-04-23 05:41 | 34.88974 | -85.96581 | 9240 ft | 290 kts | 99° |
| 2026-04-23 05:42 | 34.88648 | -85.94145 | 8715 ft | 293 kts | 99° |
| 2026-04-23 05:42 | 34.88330 | -85.91688 | 8191 ft | 294 kts | 100° |
| 2026-04-23 05:42 | 34.88012 | -85.89258 | 7673 ft | 294 kts | 100° |
| 2026-04-23 05:42 | 34.87686 | -85.86797 | 7237 ft | 288 kts | 100° |
| 2026-04-23 05:43 | 34.87391 | -85.84499 | 7081 ft | 265 kts | 100° |
| 2026-04-23 05:43 | 34.87110 | -85.82254 | 7062 ft | 271 kts | 100° |
| 2026-04-23 05:43 | 34.86807 | -85.79961 | 7030 ft | 276 kts | 101° |
| 2026-04-23 05:43 | 34.86492 | -85.77641 | 7011 ft | 279 kts | 101° |
| 2026-04-23 05:44 | 34.86173 | -85.75302 | 7006 ft | 280 kts | 101° |
| 2026-04-23 05:44 | 34.85861 | -85.72986 | 7005 ft | 281 kts | 101° |
| 2026-04-23 05:44 | 34.85535 | -85.70604 | 6775 ft | 290 kts | 101° |
| 2026-04-23 05:44 | 34.85211 | -85.68154 | 6526 ft | 296 kts | 100° |
| 2026-04-23 05:45 | 34.84888 | -85.65666 | 6283 ft | 300 kts | 100° |
| 2026-04-23 05:45 | 34.84565 | -85.63146 | 6030 ft | 302 kts | 100° |
| 2026-04-23 05:45 | 34.84249 | -85.60678 | 5792 ft | 292 kts | 100° |
| 2026-04-23 05:45 | 34.83937 | -85.58232 | 5586 ft | 287 kts | 100° |
| 2026-04-23 05:46 | 34.83634 | -85.55852 | 5450 ft | 284 kts | 100° |
| 2026-04-23 05:46 | 34.83339 | -85.53545 | 5318 ft | 269 kts | 100° |
| 2026-04-23 05:46 | 34.82911 | -85.51335 | 5182 ft | 269 kts | 117° |
| 2026-04-23 05:46 | 34.81814 | -85.49676 | 5115 ft | 237 kts | 141° |
| 2026-04-23 05:47 | 34.80463 | -85.48428 | 5024 ft | 250 kts | 148° |
| 2026-04-23 05:47 | 34.79049 | -85.47294 | 4922 ft | 233 kts | 149° |
| 2026-04-23 05:47 | 34.77926 | -85.45983 | 4811 ft | 218 kts | 124° |
| 2026-04-23 05:47 | 34.77302 | -85.44402 | 4730 ft | 196 kts | 111° |
| 2026-04-23 05:48 | 34.77250 | -85.42864 | 4595 ft | 184 kts | 74° |
| 2026-04-23 05:48 | 34.77812 | -85.41311 | 4559 ft | 217 kts | 63° |
| 2026-04-23 05:48 | 34.78577 | -85.39623 | 4478 ft | 235 kts | 60° |
| 2026-04-23 05:48 | 34.79326 | -85.38044 | 4355 ft | 198 kts | 60° |
| 2026-04-23 05:49 | 34.80070 | -85.36490 | 4271 ft | 225 kts | 60° |
| 2026-04-23 05:49 | 34.80882 | -85.34796 | 4181 ft | 237 kts | 60° |
| 2026-04-23 05:49 | 34.81728 | -85.33032 | 4086 ft | 244 kts | 60° |
| 2026-04-23 05:49 | 34.82566 | -85.31289 | 4018 ft | 229 kts | 60° |
| 2026-04-23 05:50 | 34.83349 | -85.29693 | 4000 ft | 224 kts | 57° |
| 2026-04-23 05:50 | 34.84289 | -85.28235 | 3998 ft | 212 kts | 48° |
| 2026-04-23 05:50 | 34.85313 | -85.27057 | 3994 ft | 196 kts | 36° |
| 2026-04-23 05:50 | 34.86487 | -85.26221 | 3909 ft | 188 kts | 23° |
| 2026-04-23 05:51 | 34.87685 | -85.25741 | 3621 ft | 175 kts | 12° |
| 2026-04-23 05:51 | 34.88852 | -85.25449 | 3518 ft | 178 kts | 9° |
| 2026-04-23 05:51 | 34.90052 | -85.25154 | 3270 ft | 169 kts | 12° |
| 2026-04-23 05:51 | 34.91214 | -85.24801 | 2996 ft | 183 kts | 14° |
| 2026-04-23 05:52 | 34.92495 | -85.24352 | 2754 ft | 198 kts | 16° |
| 2026-04-23 05:52 | 34.93732 | -85.23882 | 2452 ft | 180 kts | 17° |
| 2026-04-23 05:52 | 34.94877 | -85.23445 | 2211 ft | 164 kts | 17° |
| 2026-04-23 05:52 | 34.95932 | -85.23061 | 1986 ft | 154 kts | 16° |
| 2026-04-23 05:53 | 34.96916 | -85.22704 | 1773 ft | 137 kts | 17° |
| 2026-04-23 05:53 | 34.97832 | -85.22369 | 1613 ft | 135 kts | 17° |
| 2026-04-23 05:53 | 34.98668 | -85.22063 | 1400 ft | 115 kts | 16° |
| 2026-04-23 05:53 | 34.99524 | -85.21749 | 1315 ft | 137 kts | 17° |
| 2026-04-23 05:54 | 35.00419 | -85.21423 | 1097 ft | 131 kts | 17° |
| 2026-04-23 05:54 | 35.01297 | -85.21094 | 943 ft | 131 kts | 17° |
| 2026-04-23 05:54 | 35.02144 | -85.20790 | 748 ft | 122 kts | 16° |
| 2026-04-23 05:54 | 35.02882 | -85.20524 | 688 ft | 94 kts | 16° |
| 2026-04-23 05:55 | 35.03293 | -85.20374 | 688 ft | 22 kts | 19° |
| 2026-04-23 05:55 | 35.02519 | -85.19954 | 692 ft | 0 kts | 21° |
| 2026-04-23 05:55 | 35.02521 | -85.19952 | 692 ft | 2 kts | 16° |
| 2026-04-23 05:55 | 35.02570 | -85.20258 | 688 ft | 81 kts | 274° |
| 2026-04-23 05:56 | 35.02675 | -85.20588 | 688 ft | 29 kts | 5° |
| 2026-04-23 05:56 | 35.02916 | -85.20512 | 688 ft | 37 kts | 23° |
| 2026-04-23 05:56 | 35.02935 | -85.20371 | 688 ft | 15 kts | 72° |
| 2026-04-23 05:56 | 35.02973 | -85.20341 | 688 ft | 15 kts | 96° |